Time;durP1;ratioP1;P1;durP2;ratioP2;P2;SDS_P1;SDS_P2;PMS_P1;PMS_P2;Temp;Humidity;BMP_temperature;BMP_pressure;BME280_temperature;BME280_humidity;BME280_pressure;Samples;Min_cycle;Max_cycle;Signal;HPM_P1;HPM_P2
2023/03/30 00:00:20;;;;;;;10.20;5.10;;;6.30;99.90;5.50;99993;;;;597105;236;24063;-81
2023/03/30 00:02:46;;;;;;;10.73;7.00;;;6.30;99.90;5.50;99987;;;;592278;236;35029;-82
2023/03/30 00:05:14;;;;;;;10.40;6.43;;;6.30;99.90;5.50;99998;;;;606293;236;24128;-79
2023/03/30 00:07:41;;;;;;;8.30;5.30;;;6.30;99.90;5.50;99991;;;;596598;236;24099;-82
2023/03/30 00:10:09;;;;;;;9.80;5.93;;;6.30;99.90;5.50;100001;;;;596893;236;24024;-81
2023/03/30 00:12:37;;;;;;;8.13;5.27;;;6.40;99.90;5.50;99999;;;;606195;236;24060;-78
2023/03/30 00:15:09;;;;;;;10.43;5.23;;;6.40;99.90;5.50;99995;;;;596854;236;24047;-81
2023/03/30 00:17:33;;;;;;;11.23;5.03;;;6.40;99.90;5.60;99987;;;;605833;236;24106;-76
2023/03/30 00:20:03;;;;;;;6.07;4.53;;;6.40;99.90;5.60;99996;;;;597220;236;24026;-77
2023/03/30 00:22:29;;;;;;;7.10;5.30;;;6.40;99.90;5.60;99979;;;;596493;236;24056;-78
2023/03/30 00:24:57;;;;;;;9.37;5.27;;;6.40;99.90;5.60;99991;;;;596481;236;24048;-76
2023/03/30 00:27:25;;;;;;;6.23;5.10;;;6.50;99.90;5.60;99993;;;;596628;236;24076;-81
2023/03/30 00:29:52;;;;;;;9.33;5.50;;;6.40;99.90;5.60;99981;;;;596571;236;24041;-76
2023/03/30 00:32:20;;;;;;;8.93;5.40;;;6.50;99.90;5.60;99979;;;;596609;236;24070;-75
2023/03/30 00:34:48;;;;;;;7.63;4.43;;;6.50;99.90;5.60;99980;;;;596606;236;24024;-76
2023/03/30 00:37:16;;;;;;;6.37;4.43;;;6.50;99.90;5.60;99982;;;;596425;236;24047;-75
2023/03/30 00:39:44;;;;;;;6.93;5.20;;;6.40;99.90;5.60;99974;;;;596602;236;24063;-75
2023/03/30 00:42:15;;;;;;;12.67;5.13;;;6.50;99.90;5.60;99973;;;;596488;236;24047;-75
2023/03/30 00:45:10;;;;;;;12.27;5.20;;;6.50;99.90;5.70;99968;;;;596532;236;24048;-75
2023/03/30 00:47:39;;;;;;;11.70;4.80;;;6.50;99.90;5.70;99967;;;;596934;236;24025;-76
2023/03/30 00:50:06;;;;;;;7.60;4.70;;;6.50;99.90;5.70;99971;;;;595199;236;24033;-76
2023/03/30 00:52:38;;;;;;;6.80;4.50;;;6.50;99.90;5.70;99973;;;;597024;236;24052;-83
2023/03/30 00:55:02;;;;;;;10.07;4.83;;;6.50;99.90;5.70;99968;;;;596511;236;24049;-80
2023/03/30 00:57:33;;;;;;;4.13;3.73;;;6.50;99.90;5.70;99973;;;;607403;233;24036;-82
2023/03/30 00:59:58;;;;;;;6.80;4.17;;;6.50;99.90;5.70;99965;;;;597892;236;24047;-81
2023/03/30 01:02:26;;;;;;;14.20;4.60;;;6.50;99.90;5.70;99965;;;;607421;236;24032;-82
2023/03/30 01:04:54;;;;;;;9.93;4.50;;;6.50;99.90;5.70;99962;;;;607100;236;24033;-76
2023/03/30 01:07:25;;;;;;;12.17;4.97;;;6.50;99.90;5.70;99964;;;;606978;236;24036;-79
2023/03/30 01:09:50;;;;;;;8.77;5.30;;;6.50;99.90;5.70;99966;;;;597295;236;24027;-74
2023/03/30 01:12:18;;;;;;;8.10;5.13;;;6.50;99.90;5.70;99964;;;;606753;236;24425;-76
2023/03/30 01:14:47;;;;;;;8.03;4.50;;;6.60;99.90;5.70;99949;;;;602327;236;24053;-74
2023/03/30 01:17:35;;;;;;;8.43;5.30;;;6.50;99.90;5.70;99955;;;;606588;236;24017;-74
2023/03/30 01:20:15;;;;;;;10.67;4.83;;;6.60;99.90;5.70;99954;;;;596445;236;24029;-74
2023/03/30 01:23:04;;;;;;;5.90;3.87;;;6.60;99.90;5.70;99963;;;;595974;236;24043;-75
2023/03/30 01:25:59;;;;;;;6.63;4.43;;;6.60;99.90;5.70;99954;;;;597128;236;24063;-76
2023/03/30 01:28:47;;;;;;;9.23;4.83;;;6.50;99.90;5.70;99956;;;;601608;236;24054;-74
2023/03/30 01:31:43;;;;;;;8.53;4.93;;;6.60;99.90;5.70;99945;;;;601075;236;24129;-76
2023/03/30 01:34:48;;;;;;;8.23;5.07;;;6.60;99.90;5.70;99949;;;;606050;236;24055;-75
2023/03/30 01:37:48;;;;;;;10.40;4.97;;;6.50;99.90;5.70;99954;;;;596939;236;24025;-74
2023/03/30 01:40:16;;;;;;;8.97;4.67;;;6.50;99.90;5.70;99945;;;;600537;236;24069;-74
2023/03/30 01:43:07;;;;;;;7.90;4.93;;;6.50;99.90;5.70;99946;;;;605964;233;24025;-74
2023/03/30 01:45:46;;;;;;;6.03;4.53;;;6.50;99.90;5.70;99947;;;;596447;236;24062;-74
2023/03/30 01:48:16;;;;;;;8.57;4.73;;;6.50;99.90;5.60;99935;;;;600509;236;24029;-75
2023/03/30 01:50:51;;;;;;;7.57;4.10;;;6.40;99.90;5.60;99938;;;;605555;236;24036;-75
2023/03/30 01:53:21;;;;;;;13.80;4.53;;;6.40;99.90;5.60;99941;;;;606830;236;24049;-77
2023/03/30 01:55:55;;;;;;;7.13;5.10;;;6.40;99.90;5.60;99936;;;;605711;236;24039;-74
2023/03/30 01:58:26;;;;;;;8.30;4.37;;;6.40;99.90;5.60;99938;;;;605106;236;25103;-77
2023/03/30 02:00:59;;;;;;;4.20;3.80;;;6.30;99.90;5.50;99940;;;;605739;236;24030;-77
2023/03/30 02:03:29;;;;;;;4.63;4.03;;;6.30;99.90;5.50;99940;;;;596133;236;24094;-74
2023/03/30 02:05:55;;;;;;;10.07;4.67;;;6.40;99.90;5.60;99938;;;;605143;236;24030;-73
2023/03/30 02:08:22;;;;;;;8.17;4.07;;;6.30;99.90;5.50;99936;;;;607396;235;25088;-76
2023/03/30 02:10:50;;;;;;;6.50;4.87;;;6.40;99.90;5.50;99938;;;;607338;232;24025;-75
2023/03/30 02:13:18;;;;;;;6.53;4.87;;;6.40;99.90;5.50;99943;;;;606913;232;24047;-75
2023/03/30 02:15:45;;;;;;;6.37;4.57;;;6.40;99.90;5.50;99946;;;;606955;236;24032;-75
2023/03/30 02:18:16;;;;;;;6.27;3.47;;;6.40;99.90;5.50;99934;;;;606420;236;24039;-74
2023/03/30 02:20:41;;;;;;;8.83;5.83;;;6.40;99.90;5.50;99936;;;;597006;236;24047;-74
2023/03/30 02:23:10;;;;;;;8.57;5.13;;;6.30;99.90;5.50;99919;;;;597083;236;24177;-74
2023/03/30 02:25:42;;;;;;;9.67;5.30;;;6.30;99.90;5.50;99919;;;;595815;236;24061;-73
2023/03/30 02:28:12;;;;;;;8.17;5.83;;;6.30;99.90;5.50;99928;;;;596362;236;24051;-75
2023/03/30 02:30:37;;;;;;;6.57;5.07;;;6.30;99.90;5.50;99928;;;;596637;236;24125;-75
2023/03/30 02:33:06;;;;;;;11.00;6.73;;;6.30;99.90;5.50;99926;;;;600487;236;45925;-74
2023/03/30 02:35:42;;;;;;;9.67;5.90;;;6.30;99.90;5.50;99932;;;;596507;236;24140;-75
2023/03/30 02:38:21;;;;;;;9.00;4.83;;;6.30;99.90;5.50;99928;;;;592530;236;24045;-75
2023/03/30 02:41:06;;;;;;;11.23;4.90;;;6.30;99.90;5.50;99928;;;;594505;236;24165;-75
2023/03/30 02:43:58;;;;;;;7.70;4.87;;;6.30;99.90;5.40;99932;;;;600918;236;24043;-75
2023/03/30 02:46:47;;;;;;;6.07;4.73;;;6.20;99.90;5.40;99920;;;;607197;236;24022;-75
2023/03/30 02:49:27;;;;;;;9.53;4.30;;;6.30;99.90;5.40;99917;;;;600513;236;24033;-76
2023/03/30 02:52:03;;;;;;;8.40;5.03;;;6.20;99.90;5.40;99912;;;;596401;236;24043;-75
2023/03/30 02:54:50;;;;;;;6.33;4.47;;;6.20;99.90;5.30;99918;;;;596232;233;24107;-76
2023/03/30 02:57:45;;;;;;;7.40;5.37;;;6.20;99.90;5.30;99912;;;;596920;236;24032;-73
2023/03/30 03:00:13;;;;;;;8.23;4.40;;;6.20;99.90;5.30;99910;;;;596433;236;24080;-74
2023/03/30 03:02:54;;;;;;;8.50;4.33;;;6.10;99.90;5.30;99910;;;;595335;241;24055;-72
2023/03/30 03:05:22;;;;;;;10.37;5.57;;;6.10;99.90;5.30;99903;;;;585069;241;24093;-75
2023/03/30 03:07:50;;;;;;;9.23;4.80;;;6.10;99.90;5.30;99906;;;;590537;241;24046;-75
2023/03/30 03:10:17;;;;;;;7.70;5.00;;;6.10;99.90;5.30;99908;;;;585576;241;24081;-75
2023/03/30 03:12:48;;;;;;;12.00;5.87;;;6.10;99.90;5.20;99896;;;;596667;236;24027;-74
2023/03/30 03:15:15;;;;;;;9.57;5.33;;;6.00;99.90;5.20;99896;;;;599305;237;24019;-74
2023/03/30 03:17:44;;;;;;;9.50;5.27;;;6.00;99.90;5.20;99899;;;;595998;237;24054;-76
2023/03/30 03:20:10;;;;;;;9.00;4.30;;;6.00;99.90;5.20;99891;;;;595830;240;24073;-76
2023/03/30 03:22:38;;;;;;;8.17;4.57;;;6.00;99.90;5.10;99888;;;;591196;236;24174;-75
2023/03/30 03:25:09;;;;;;;8.50;5.07;;;6.00;99.90;5.10;99882;;;;601696;236;24025;-74
2023/03/30 03:27:35;;;;;;;8.37;4.67;;;5.90;99.90;5.10;99878;;;;596932;236;24025;-74
2023/03/30 03:30:02;;;;;;;11.50;5.73;;;5.90;99.90;5.10;99871;;;;594846;241;24117;-75
2023/03/30 03:32:30;;;;;;;9.47;5.07;;;5.90;99.90;5.00;99875;;;;595228;241;24055;-76
2023/03/30 03:34:58;;;;;;;7.70;4.73;;;5.90;99.90;5.00;99872;;;;586002;241;24139;-74
2023/03/30 03:37:26;;;;;;;6.97;5.07;;;5.90;99.90;5.00;99872;;;;585640;241;24048;-74
2023/03/30 03:39:54;;;;;;;7.20;4.43;;;5.80;99.90;5.00;99873;;;;591579;239;24093;-74
2023/03/30 03:42:22;;;;;;;5.97;4.73;;;5.80;99.90;4.90;99872;;;;601877;236;24066;-74
2023/03/30 03:44:50;;;;;;;7.63;5.50;;;5.80;99.90;4.90;99872;;;;596878;236;24042;-75
2023/03/30 03:47:18;;;;;;;7.67;5.37;;;5.80;99.90;4.90;99866;;;;596968;236;25084;-76
2023/03/30 03:49:46;;;;;;;7.77;5.53;;;5.70;99.90;4.90;99873;;;;596847;236;24013;-75
2023/03/30 03:52:15;;;;;;;7.40;5.00;;;5.70;99.90;4.90;99861;;;;596738;236;24060;-75
2023/03/30 03:54:43;;;;;;;11.50;6.27;;;5.70;99.90;4.90;99863;;;;596874;236;24079;-75
2023/03/30 03:57:11;;;;;;;8.77;5.23;;;5.70;99.90;4.80;99872;;;;596956;236;24043;-75
2023/03/30 03:59:39;;;;;;;9.83;5.37;;;5.70;99.90;4.80;99859;;;;596987;236;24115;-74
2023/03/30 04:02:07;;;;;;;11.40;5.37;;;5.70;99.90;4.80;99861;;;;596614;236;24061;-74
2023/03/30 04:04:35;;;;;;;8.03;5.63;;;5.60;99.90;4.80;99857;;;;596902;236;24077;-74
2023/03/30 04:07:04;;;;;;;10.73;5.77;;;5.70;99.90;4.80;99850;;;;596602;236;24040;-76
2023/03/30 04:09:32;;;;;;;7.10;5.87;;;5.60;99.90;4.80;99846;;;;596538;236;24037;-74
2023/03/30 04:12:00;;;;;;;8.43;5.77;;;5.70;99.90;4.80;99849;;;;596640;236;24037;-75
2023/03/30 04:14:27;;;;;;;13.80;5.40;;;5.70;99.90;4.80;99854;;;;596600;236;24068;-74
2023/03/30 04:16:59;;;;;;;10.50;5.37;;;5.70;99.90;4.80;99843;;;;596711;236;24013;-74
2023/03/30 04:19:24;;;;;;;9.97;5.50;;;5.60;99.90;4.80;99854;;;;596533;236;24042;-74
2023/03/30 04:21:51;;;;;;;8.33;6.80;;;5.60;99.90;4.80;99849;;;;596468;236;24061;-73
2023/03/30 04:24:19;;;;;;;7.10;5.67;;;5.60;99.90;4.80;99849;;;;596660;236;24072;-75
2023/03/30 04:26:50;;;;;;;8.40;5.30;;;5.70;99.90;4.80;99842;;;;596594;236;24037;-74
2023/03/30 04:29:22;;;;;;;9.77;6.20;;;5.60;99.90;4.80;99844;;;;596767;236;24051;-75
2023/03/30 04:31:46;;;;;;;15.17;8.77;;;5.70;99.90;4.90;99845;;;;601656;235;34959;-76
2023/03/30 04:34:14;;;;;;;12.15;8.77;;;5.70;99.90;4.90;99842;;;;592838;236;34881;-76
2023/03/30 04:36:45;;;;;;;12.70;9.18;;;5.80;99.90;5.00;99841;;;;592257;236;45906;-75
2023/03/30 04:39:17;;;;;;;13.97;7.47;;;5.90;99.90;5.00;99842;;;;597358;236;24084;-75
2023/03/30 04:41:44;;;;;;;11.07;6.40;;;5.90;99.90;5.10;99837;;;;597023;236;24044;-75
2023/03/30 04:44:09;;;;;;;8.57;6.33;;;5.90;99.90;5.10;99843;;;;596887;236;24083;-80
2023/03/30 04:46:41;;;;;;;7.23;5.67;;;6.00;99.90;5.20;99846;;;;597235;236;24043;-80
2023/03/30 04:49:05;;;;;;;13.27;6.33;;;6.00;99.90;5.20;99835;;;;597057;236;24045;-76
2023/03/30 04:51:34;;;;;;;9.30;5.97;;;6.10;99.90;5.20;99835;;;;597265;236;24022;-76
2023/03/30 04:54:02;;;;;;;10.10;6.13;;;6.10;99.90;5.30;99833;;;;596899;236;24040;-78
2023/03/30 04:56:30;;;;;;;15.40;6.37;;;6.10;99.90;5.30;99836;;;;596767;236;24082;-79
2023/03/30 04:58:57;;;;;;;9.57;5.87;;;6.20;99.90;5.40;99820;;;;606461;236;24042;-80
2023/03/30 05:01:26;;;;;;;11.97;5.90;;;6.30;99.90;5.40;99822;;;;606764;236;24017;-76
2023/03/30 05:03:54;;;;;;;11.60;5.97;;;6.20;99.90;5.40;99820;;;;597277;236;24025;-79
2023/03/30 05:06:22;;;;;;;11.43;5.80;;;6.20;99.90;5.40;99819;;;;597256;236;24022;-75
2023/03/30 05:08:50;;;;;;;15.93;8.83;;;6.30;99.90;5.50;99817;;;;591856;236;34969;-76
2023/03/30 05:11:18;;;;;;;10.10;6.43;;;6.30;99.90;5.60;99810;;;;596629;236;24029;-75
2023/03/30 05:13:46;;;;;;;9.37;6.70;;;6.40;99.90;5.70;99810;;;;596485;236;25057;-75
2023/03/30 05:16:14;;;;;;;8.27;6.30;;;6.50;99.90;5.70;99811;;;;596659;236;24119;-78
2023/03/30 05:18:42;;;;;;;11.97;6.33;;;6.60;99.90;5.80;99808;;;;596511;236;24020;-76
2023/03/30 05:21:10;;;;;;;8.10;5.60;;;6.70;99.90;5.80;99818;;;;596794;236;24039;-74
2023/03/30 05:23:41;;;;;;;13.97;6.73;;;6.60;99.90;5.90;99805;;;;596568;236;24092;-76
2023/03/30 05:26:09;;;;;;;15.20;6.37;;;6.70;99.90;6.00;99813;;;;596454;236;24112;-75
2023/03/30 05:28:34;;;;;;;11.40;6.47;;;6.80;99.90;6.00;99818;;;;596305;236;24038;-75
2023/03/30 05:31:02;;;;;;;10.27;6.23;;;6.80;99.90;6.10;99817;;;;596571;236;24094;-75
2023/03/30 05:33:30;;;;;;;8.67;6.17;;;6.90;99.90;6.20;99813;;;;596695;236;24036;-76
2023/03/30 05:35:57;;;;;;;9.73;6.07;;;7.00;99.90;6.20;99824;;;;596475;236;24052;-76
2023/03/30 05:38:25;;;;;;;10.40;5.90;;;7.00;99.90;6.30;99823;;;;596376;236;24019;-75
2023/03/30 05:40:53;;;;;;;11.37;6.47;;;7.10;99.90;6.30;99820;;;;596669;236;24033;-76
2023/03/30 05:43:21;;;;;;;12.07;6.63;;;7.20;99.90;6.40;99823;;;;596204;236;24130;-75
2023/03/30 05:45:49;;;;;;;13.60;6.53;;;7.20;99.90;6.50;99808;;;;597855;236;25072;-75
2023/03/30 05:48:17;;;;;;;9.57;6.60;;;7.30;99.90;6.60;99813;;;;597490;236;24057;-74
2023/03/30 05:50:45;;;;;;;12.97;6.60;;;7.40;99.90;6.60;99817;;;;597847;236;24084;-74
2023/03/30 05:53:13;;;;;;;14.10;7.40;;;7.40;99.90;6.70;99813;;;;606674;236;24020;-74
2023/03/30 05:55:45;;;;;;;12.80;6.77;;;7.50;99.90;6.70;99807;;;;597077;236;24071;-74
2023/03/30 05:58:11;;;;;;;16.67;7.00;;;7.60;99.90;6.80;99805;;;;596821;236;24059;-76
2023/03/30 06:00:42;;;;;;;10.27;5.83;;;7.60;99.90;6.90;99807;;;;597477;236;24022;-76
2023/03/30 06:03:11;;;;;;;22.33;8.13;;;7.70;99.90;6.90;99808;;;;596765;236;24066;-77
2023/03/30 06:05:38;;;;;;;15.30;6.80;;;7.80;99.90;7.00;99801;;;;596424;236;24116;-75
2023/03/30 06:08:07;;;;;;;11.13;6.90;;;7.70;99.90;7.10;99803;;;;596726;236;24039;-76
2023/03/30 06:10:33;;;;;;;16.27;5.73;;;8.00;99.90;7.20;99794;;;;596695;236;24102;-75
2023/03/30 06:13:01;;;;;;;17.33;6.83;;;8.00;99.90;7.30;99797;;;;596772;236;24137;-75
2023/03/30 06:15:29;;;;;;;15.87;7.13;;;8.10;99.90;7.50;99792;;;;606451;236;24045;-75
2023/03/30 06:17:58;;;;;;;11.87;6.00;;;8.20;99.90;7.60;99794;;;;595427;236;24147;-75
2023/03/30 06:20:25;;;;;;;22.20;7.30;;;8.40;99.90;7.80;99795;;;;596752;236;24053;-75
2023/03/30 06:22:53;;;;;;;15.87;7.43;;;8.50;99.90;7.90;99800;;;;596601;236;24028;-76
2023/03/30 06:25:22;;;;;;;25.27;7.47;;;8.70;99.90;8.00;99795;;;;596514;236;24052;-75
2023/03/30 06:27:48;;;;;;;21.30;7.13;;;8.80;99.90;8.00;99798;;;;596521;236;24064;-75
2023/03/30 06:30:16;;;;;;;11.97;6.87;;;8.80;99.90;8.00;99797;;;;596491;236;24028;-81
2023/03/30 06:32:44;;;;;;;15.20;7.43;;;8.80;99.90;8.00;99789;;;;596719;236;24101;-77
2023/03/30 06:35:15;;;;;;;14.17;6.83;;;8.80;99.90;7.90;99790;;;;596638;236;24082;-76
2023/03/30 06:37:44;;;;;;;13.67;7.10;;;8.80;99.90;8.00;99790;;;;597031;236;24052;-75
2023/03/30 06:40:14;;;;;;;14.13;7.07;;;8.80;99.90;8.10;99795;;;;596610;236;24077;-75
2023/03/30 06:42:45;;;;;;;8.73;6.20;;;8.90;99.90;8.20;99796;;;;600513;236;24052;-75
2023/03/30 06:45:10;;;;;;;14.03;6.70;;;9.00;99.90;8.40;99799;;;;596585;236;24074;-76
2023/03/30 06:47:38;;;;;;;11.70;6.60;;;9.10;99.90;8.60;99799;;;;601561;236;24071;-75
2023/03/30 06:50:06;;;;;;;17.63;7.23;;;9.40;99.90;8.90;99802;;;;596662;236;24074;-79
2023/03/30 06:52:38;;;;;;;18.20;8.10;;;9.60;99.90;9.10;99797;;;;600741;236;24041;-78
2023/03/30 06:55:02;;;;;;;12.03;8.17;;;9.80;99.90;9.30;99801;;;;597399;236;24068;-76
2023/03/30 06:57:33;;;;;;;18.17;8.43;;;10.00;99.90;9.40;99799;;;;597911;236;25081;-75
2023/03/30 06:59:58;;;;;;;11.70;7.93;;;10.20;99.90;9.70;99795;;;;597466;236;24047;-77
2023/03/30 07:02:28;;;;;;;9.70;7.63;;;10.40;99.90;10.00;99797;;;;598322;236;24010;-78
2023/03/30 07:04:53;;;;;;;12.60;8.00;;;10.60;99.90;10.20;99793;;;;597329;236;24174;-77
2023/03/30 07:07:21;;;;;;;12.27;8.17;;;10.90;99.90;10.50;99803;;;;597475;236;24013;-79
2023/03/30 07:09:49;;;;;;;11.40;7.23;;;11.20;99.90;10.60;99800;;;;597284;236;24098;-78
2023/03/30 07:12:17;;;;;;;12.73;8.57;;;11.30;99.90;10.80;99798;;;;597026;236;24020;-76
2023/03/30 07:14:45;;;;;;;13.03;8.60;;;11.50;99.90;10.80;99794;;;;596946;236;24018;-77
2023/03/30 07:17:13;;;;;;;13.93;8.47;;;11.60;99.90;10.90;99797;;;;596824;236;24076;-78
2023/03/30 07:19:41;;;;;;;11.90;8.13;;;11.70;99.90;11.00;99795;;;;597017;236;24025;-78
2023/03/30 07:22:09;;;;;;;11.60;8.17;;;11.80;99.90;11.00;99798;;;;596917;236;24029;-79
2023/03/30 07:24:37;;;;;;;14.97;8.50;;;11.80;99.90;11.20;99793;;;;596802;236;24072;-78
2023/03/30 07:27:05;;;;;;;18.03;9.07;;;11.90;99.90;11.40;99794;;;;596910;236;24027;-77
2023/03/30 07:29:33;;;;;;;14.77;10.13;;;12.10;99.90;11.70;99783;;;;596796;236;24139;-77
2023/03/30 07:32:01;;;;;;;18.50;9.47;;;12.40;99.90;12.10;99792;;;;596628;236;24033;-76
2023/03/30 07:34:31;;;;;;;16.57;10.50;;;12.70;99.90;12.40;99792;;;;596590;236;24094;-79
2023/03/30 07:36:57;;;;;;;13.77;9.73;;;13.10;99.90;13.00;99789;;;;596722;236;24047;-76
2023/03/30 07:39:24;;;;;;;13.30;9.83;;;13.50;99.90;13.50;99790;;;;596727;236;24045;-76
2023/03/30 07:41:52;;;;;;;15.90;10.17;;;14.10;99.90;14.20;99789;;;;596537;236;24026;-77
2023/03/30 07:44:20;;;;;;;35.53;11.00;;;14.70;99.90;14.90;99783;;;;596673;236;24086;-81
2023/03/30 07:46:51;;;;;;;14.63;10.10;;;15.50;99.90;15.70;99798;;;;596565;236;24027;-76
2023/03/30 07:49:16;;;;;;;14.80;10.40;;;16.20;99.90;16.40;99797;;;;596518;236;24128;-77
2023/03/30 07:51:44;;;;;;;11.73;9.07;;;17.00;96.90;16.70;99793;;;;596606;236;24025;-76
2023/03/30 07:54:12;;;;;;;15.10;10.30;;;17.30;94.60;16.70;99790;;;;596389;236;24021;-75
2023/03/30 07:56:41;;;;;;;13.87;10.17;;;17.50;93.40;16.70;99793;;;;596676;236;24030;-75
2023/03/30 07:59:09;;;;;;;15.07;10.33;;;17.60;92.70;16.70;99787;;;;596481;236;24051;-77
2023/03/30 08:01:36;;;;;;;13.47;9.80;;;17.60;92.50;16.80;99788;;;;606134;233;24091;-76
2023/03/30 08:04:05;;;;;;;18.70;11.20;;;17.70;91.20;17.00;99786;;;;596454;236;24054;-78
2023/03/30 08:06:33;;;;;;;11.67;8.90;;;17.70;90.20;16.80;99786;;;;598148;236;24025;-76
2023/03/30 08:09:04;;;;;;;14.97;9.77;;;17.70;90.20;16.50;99777;;;;607617;236;24083;-77
2023/03/30 08:11:30;;;;;;;16.80;10.60;;;17.40;90.00;16.00;99780;;;;597724;236;24033;-76
2023/03/30 08:13:57;;;;;;;17.43;10.80;;;17.00;90.50;15.60;99781;;;;597804;236;24057;-75
2023/03/30 08:16:25;;;;;;;14.57;10.87;;;16.70;90.90;15.20;99777;;;;597536;236;24049;-76
2023/03/30 08:18:53;;;;;;;13.37;10.67;;;16.30;91.70;15.10;99772;;;;597563;236;24019;-77
2023/03/30 08:21:24;;;;;;;16.73;11.63;;;16.10;92.20;15.10;99774;;;;597603;236;24043;-77
2023/03/30 08:23:49;;;;;;;19.17;10.50;;;16.00;92.60;14.90;99766;;;;606401;236;24019;-75
2023/03/30 08:26:19;;;;;;;17.07;10.53;;;15.80;92.40;15.00;99757;;;;597267;232;24006;-77
2023/03/30 08:28:45;;;;;;;24.40;11.87;;;15.70;93.00;15.10;99762;;;;597096;236;24050;-78
2023/03/30 08:31:12;;;;;;;20.33;12.05;;;15.80;92.90;15.20;99763;;;;592137;236;34996;-77
2023/03/30 08:33:41;;;;;;;16.73;10.97;;;15.80;92.80;15.00;99762;;;;597331;236;24020;-78
2023/03/30 08:36:14;;;;;;;24.03;11.93;;;15.70;92.70;15.00;99754;;;;597284;236;24033;-77
2023/03/30 08:38:44;;;;;;;19.83;12.73;;;15.80;93.00;15.30;99751;;;;597228;236;24007;-76
2023/03/30 08:41:26;;;;;;;15.33;11.60;;;16.40;92.30;15.80;99754;;;;597246;236;24038;-76
2023/03/30 08:44:00;;;;;;;18.90;12.47;;;16.60;91.70;15.90;99748;;;;601817;233;24081;-75
2023/03/30 08:46:29;;;;;;;13.47;11.10;;;16.90;91.40;16.10;99746;;;;597051;236;24028;-76
2023/03/30 08:48:58;;;;;;;15.60;11.97;;;17.00;90.90;16.30;99743;;;;606405;236;24107;-76
2023/03/30 08:51:32;;;;;;;13.60;11.17;;;17.40;90.80;16.90;99738;;;;606383;236;24084;-78
2023/03/30 08:54:00;;;;;;;16.37;12.20;;;17.40;90.80;17.40;99735;;;;606484;236;24028;-76
2023/03/30 08:56:34;;;;;;;16.63;12.67;;;18.00;88.00;18.00;99737;;;;596668;236;24017;-76
2023/03/30 08:59:42;;;;;;;22.30;12.10;;;19.10;84.20;18.40;99741;;;;599975;236;24053;-80
2023/03/30 09:02:22;;;;;;;16.60;12.30;;;19.10;84.20;19.20;99737;;;;606381;236;23038;-76
2023/03/30 09:05:17;;;;;;;15.37;12.67;;;20.60;78.90;20.00;99733;;;;606292;236;25093;-75
2023/03/30 09:08:12;;;;;;;18.70;13.23;;;21.30;75.00;20.60;99738;;;;596894;236;23047;-76
2023/03/30 09:10:37;;;;;;;18.87;14.00;;;22.00;73.00;21.30;99732;;;;596976;236;24075;-78
2023/03/30 09:13:05;;;;;;;16.97;12.67;;;22.70;70.60;22.00;99729;;;;606351;233;24078;-78
2023/03/30 09:16:05;;;;;;;18.03;13.60;;;23.70;65.30;22.90;99739;;;;596923;236;24029;-77
2023/03/30 09:18:33;;;;;;;15.23;12.67;;;23.60;65.20;23.20;99728;;;;607443;235;24041;-78
2023/03/30 09:21:00;;;;;;;12.70;11.47;;;24.20;61.50;23.40;99725;;;;606939;236;24143;-77
2023/03/30 09:23:31;;;;;;;13.33;12.10;;;24.50;59.60;23.20;99732;;;;597674;236;23068;-76
2023/03/30 09:26:20;;;;;;;15.80;13.07;;;24.50;58.40;23.00;99720;;;;597611;236;24093;-77
2023/03/30 09:29:09;;;;;;;14.53;12.97;;;24.30;58.80;23.40;99721;;;;595804;236;24010;-76
2023/03/30 09:31:43;;;;;;;16.00;11.90;;;24.40;60.20;24.20;99716;;;;606982;236;23064;-77
2023/03/30 09:34:28;;;;;;;14.90;12.23;;;25.00;58.90;25.10;99709;;;;597675;236;24026;-76
2023/03/30 09:37:00;;;;;;;13.57;11.93;;;26.70;53.80;25.60;99702;;;;607049;236;23093;-76
2023/03/30 09:39:28;;;;;;;15.17;12.27;;;26.60;53.60;25.30;99703;;;;597312;236;24049;-76
2023/03/30 09:42:42;;;;;;;25.27;12.90;;;26.60;53.50;25.10;99697;;;;606900;236;23046;-76
2023/03/30 09:45:27;;;;;;;14.37;12.93;;;26.50;53.60;25.20;99688;;;;606837;236;25094;-76
2023/03/30 09:47:51;;;;;;;15.53;13.70;;;26.40;53.10;24.30;99689;;;;600920;236;24038;-76
2023/03/30 09:50:25;;;;;;;15.70;13.20;;;25.90;52.60;23.10;99683;;;;595686;236;24050;-77
2023/03/30 09:53:03;;;;;;;15.13;13.37;;;24.90;54.00;22.40;99673;;;;606485;236;23038;-77
2023/03/30 09:55:38;;;;;;;18.50;14.10;;;23.10;57.00;21.30;99667;;;;606153;232;23063;-76
2023/03/30 09:58:21;;;;;;;15.73;13.33;;;23.00;56.90;20.20;99665;;;;596283;236;25191;-75
2023/03/30 10:00:49;;;;;;;15.63;13.77;;;21.90;59.30;19.20;99668;;;;594570;236;24133;-77
2023/03/30 10:03:20;;;;;;;15.60;13.97;;;20.10;64.30;18.90;99661;;;;604945;236;24072;-75
2023/03/30 10:06:15;;;;;;;22.23;13.63;;;20.10;64.20;19.00;99647;;;;605797;236;24037;-76
2023/03/30 10:08:53;;;;;;;15.50;12.33;;;19.90;65.50;19.50;99642;;;;606261;236;24128;-76
2023/03/30 10:11:35;;;;;;;16.33;13.97;;;20.30;65.50;20.00;99641;;;;596762;236;23042;-77
2023/03/30 10:14:06;;;;;;;16.43;13.87;;;20.90;64.30;20.70;99632;;;;606197;236;24036;-77
2023/03/30 10:16:34;;;;;;;15.40;12.60;;;21.70;62.70;21.30;99625;;;;596595;236;23082;-76
2023/03/30 10:19:03;;;;;;;13.83;12.07;;;22.50;59.80;21.20;99639;;;;606223;236;24048;-77
2023/03/30 10:21:31;;;;;;;14.13;12.73;;;22.10;59.80;20.70;99635;;;;596605;236;24069;-78
2023/03/30 10:24:15;;;;;;;14.63;12.20;;;22.10;59.80;20.10;99624;;;;605949;236;24083;-75
2023/03/30 10:26:45;;;;;;;13.27;11.97;;;21.50;61.40;20.00;99620;;;;606261;233;24045;-77
2023/03/30 10:29:14;;;;;;;18.40;12.37;;;21.20;63.00;19.90;99614;;;;607057;235;24020;-78
2023/03/30 10:31:45;;;;;;;16.60;13.10;;;20.70;64.30;19.60;99611;;;;607379;236;23060;-75
2023/03/30 10:34:19;;;;;;;18.67;16.27;;;20.70;64.20;19.70;99609;;;;606939;236;24020;-76
2023/03/30 10:36:47;;;;;;;16.40;14.63;;;20.60;64.70;19.80;99604;;;;605307;236;24083;-76
2023/03/30 10:39:24;;;;;;;15.90;12.43;;;20.60;64.80;19.50;99593;;;;597126;236;24073;-76
2023/03/30 10:41:54;;;;;;;13.80;11.10;;;20.50;64.50;19.50;99593;;;;595729;236;24040;-78
2023/03/30 10:44:25;;;;;;;16.83;12.17;;;20.30;66.20;19.40;99606;;;;597035;236;23090;-76
2023/03/30 10:46:53;;;;;;;26.92;16.10;;;20.20;65.90;19.00;99604;;;;599879;236;35065;-78
2023/03/30 10:49:27;;;;;;;13.97;11.87;;;20.00;66.30;18.70;99605;;;;606000;236;24021;-76
2023/03/30 10:51:57;;;;;;;18.67;13.13;;;19.70;67.30;18.80;99613;;;;596795;236;24104;-76
2023/03/30 10:54:26;;;;;;;16.93;12.60;;;19.60;68.00;18.80;99613;;;;606215;236;24092;-76
2023/03/30 10:56:54;;;;;;;20.87;12.50;;;19.50;69.30;18.80;99609;;;;606000;236;24029;-77
2023/03/30 10:59:43;;;;;;;13.63;11.20;;;19.50;68.40;18.70;99601;;;;606027;236;24103;-76
2023/03/30 11:02:29;;;;;;;13.10;10.90;;;19.40;68.50;18.40;99595;;;;606533;236;23060;-76
2023/03/30 11:05:15;;;;;;;17.00;12.33;;;19.20;69.20;18.10;99587;;;;605368;236;23055;-77
2023/03/30 11:07:43;;;;;;;17.70;11.93;;;18.90;70.20;17.90;99594;;;;605675;236;24087;-80
2023/03/30 11:10:27;;;;;;;16.07;11.57;;;18.60;71.50;17.90;99594;;;;596801;236;24033;-75
2023/03/30 11:12:59;;;;;;;15.17;11.03;;;18.60;72.30;17.80;99598;;;;605680;236;23046;-77
2023/03/30 11:15:41;;;;;;;15.13;11.70;;;18.40;71.90;17.60;99594;;;;592558;236;24018;-76
2023/03/30 11:18:12;;;;;;;14.53;11.00;;;18.30;72.60;17.60;99575;;;;606156;236;23063;-78
2023/03/30 11:20:52;;;;;;;13.67;11.03;;;18.30;72.70;17.60;99551;;;;596598;236;23089;-78
2023/03/30 11:23:44;;;;;;;14.57;11.17;;;18.20;73.20;17.60;99556;;;;595282;236;23046;-81
2023/03/30 11:26:15;;;;;;;11.97;10.03;;;18.10;73.40;17.30;99553;;;;596854;236;24037;-75
2023/03/30 11:28:55;;;;;;;19.87;10.57;;;18.00;73.30;17.10;99539;;;;595210;236;24044;-76
2023/03/30 11:31:41;;;;;;;20.60;10.63;;;17.80;74.00;16.70;99531;;;;606104;236;24086;-81
2023/03/30 11:34:33;;;;;;;17.40;10.67;;;17.60;74.40;16.60;99530;;;;596872;236;24055;-76
2023/03/30 11:37:17;;;;;;;13.40;10.80;;;17.30;75.60;16.60;99528;;;;596990;236;24087;-77
2023/03/30 11:39:48;;;;;;;23.37;11.50;;;17.30;75.60;16.50;99510;;;;606390;236;24085;-76